Time;durP1;ratioP1;P1;durP2;ratioP2;P2;SDS_P1;SDS_P2;PMS_P1;PMS_P2;Temp;Humidity;BMP_temperature;BMP_pressure;BME280_temperature;BME280_humidity;BME280_pressure;Samples;Min_cycle;Max_cycle;Signal;HPM_P1;HPM_P2
2024/02/29 00:01:44;;;;;;;;;;;282.10;2278.40;;;;;;4907878;29;20291;-76
2024/02/29 00:04:09;;;;;;;;;;;282.10;2278.40;;;;;;4927400;29;19957;-76
2024/02/29 00:06:35;;;;;;;;;;;282.10;2278.40;;;;;;4928490;29;20332;-77
2024/02/29 00:09:00;;;;;;;;;;;282.00;2278.40;;;;;;4909182;29;19919;-77
2024/02/29 00:11:26;;;;;;;;;;;281.90;2278.40;;;;;;4907861;29;19915;-75
2024/02/29 00:13:52;;;;;;;;;;;281.70;2278.40;;;;;;4921884;29;19912;-75
2024/02/29 00:16:18;;;;;;;;;;;281.60;2278.40;;;;;;4925565;29;19918;-75
2024/02/29 00:18:45;;;;;;;;;;;281.80;2278.40;;;;;;4910034;29;19911;-75
2024/02/29 00:21:11;;;;;;;;;;;281.90;2278.40;;;;;;4930346;29;19946;-75
2024/02/29 00:23:37;;;;;;;;;;;282.00;2278.40;;;;;;4907789;29;20283;-76
2024/02/29 00:26:02;;;;;;;;;;;282.00;2278.40;;;;;;4923395;29;19911;-75
2024/02/29 00:28:28;;;;;;;;;;;281.90;2278.40;;;;;;4933316;29;19919;-75
2024/02/29 00:30:54;;;;;;;;;;;282.00;2278.40;;;;;;4901368;29;19918;-75
2024/02/29 00:33:20;;;;;;;;;;;281.80;2278.40;;;;;;4910629;29;19975;-76
2024/02/29 00:35:45;;;;;;;;;;;281.80;2278.40;;;;;;4928968;29;19911;-76
2024/02/29 00:38:11;;;;;;;;;;;281.90;2278.40;;;;;;4908707;29;19918;-76
2024/02/29 00:40:37;;;;;;;;;;;281.90;2278.40;;;;;;4906338;29;20021;-76
2024/02/29 00:43:02;;;;;;;;;;;282.00;2278.40;;;;;;4911006;29;19919;-76
2024/02/29 00:45:28;;;;;;;;;;;282.10;2278.40;;;;;;4923579;29;19911;-76
2024/02/29 00:47:54;;;;;;;;;;;282.20;2278.40;;;;;;4929427;29;19981;-76
2024/02/29 00:50:23;;;;;;;;;;;282.30;2278.40;;;;;;4921278;29;19969;-76
2024/02/29 00:52:48;;;;;;;;;;;282.20;2278.40;;;;;;4923062;29;19922;-76
2024/02/29 00:55:14;;;;;;;;;;;282.10;2278.40;;;;;;4924180;29;19915;-75
2024/02/29 00:57:40;;;;;;;;;;;282.00;2278.40;;;;;;4907804;29;19917;-75
2024/02/29 01:00:07;;;;;;;;;;;256.90;2252.80;;;;;;4929384;29;19955;-75
2024/02/29 01:02:33;;;;;;;;;;;256.90;2252.80;;;;;;4907211;29;19919;-75
2024/02/29 01:04:59;;;;;;;;;;;256.80;2252.80;;;;;;4931390;29;19911;-75
2024/02/29 01:07:24;;;;;;;;;;;256.80;2252.80;;;;;;4909579;29;20009;-76
2024/02/29 01:09:50;;;;;;;;;;;256.80;2252.80;;;;;;4906591;29;19967;-82
2024/02/29 01:12:15;;;;;;;;;;;256.60;2252.80;;;;;;4905889;29;19911;-77
2024/02/29 01:14:41;;;;;;;;;;;256.60;2252.80;;;;;;4923402;29;19911;-76
2024/02/29 01:17:07;;;;;;;;;;;256.60;2252.80;;;;;;4923492;29;20411;-76
2024/02/29 01:19:32;;;;;;;;;;;256.60;2252.80;;;;;;4938234;29;19916;-77
2024/02/29 01:21:58;;;;;;;;;;;256.50;2252.80;;;;;;4927518;29;19923;-79
2024/02/29 01:24:24;;;;;;;;;;;256.40;2252.80;;;;;;4915670;29;19981;-77
2024/02/29 01:26:50;;;;;;;;;;;256.50;2252.80;;;;;;4935827;29;19911;-76
2024/02/29 01:29:16;;;;;;;;;;;256.40;2252.80;;;;;;4910473;29;19958;-77
2024/02/29 01:31:41;;;;;;;;;;;256.50;2252.80;;;;;;4903462;29;19911;-79
2024/02/29 01:34:07;;;;;;;;;;;256.30;2252.80;;;;;;4903646;29;19915;-81
2024/02/29 01:36:32;;;;;;;;;;;256.10;2252.80;;;;;;4920687;29;19919;-76
2024/02/29 01:38:58;;;;;;;;;;;256.10;2252.80;;;;;;4920260;29;19998;-76
2024/02/29 01:41:24;;;;;;;;;;;256.20;2252.80;;;;;;4903198;29;19912;-77
2024/02/29 01:43:53;;;;;;;;;;;256.10;2252.80;;;;;;4920506;29;20018;-77
2024/02/29 01:46:19;;;;;;;;;;;256.10;2252.80;;;;;;4922081;29;19911;-76
2024/02/29 01:48:48;;;;;;;;;;;256.20;2252.80;;;;;;4921907;29;19911;-77
2024/02/29 01:51:14;;;;;;;;;;;256.10;2252.80;;;;;;4921969;29;19919;-77
2024/02/29 01:53:40;;;;;;;;;;;256.20;2252.80;;;;;;4921794;29;19969;-77
2024/02/29 01:56:06;;;;;;;;;;;256.10;2252.80;;;;;;4938608;29;19911;-77
2024/02/29 01:58:33;;;;;;;;;;;256.00;2252.80;;;;;;4921775;29;19910;-76
2024/02/29 02:00:59;;;;;;;;;;;231.10;2252.80;;;;;;4941024;29;20260;-78
2024/02/29 02:03:25;;;;;;;;;;;231.10;2252.80;;;;;;4932003;29;19926;-77
2024/02/29 02:05:50;;;;;;;;;;;231.00;2252.80;;;;;;4921756;29;19998;-78
2024/02/29 02:08:16;;;;;;;;;;;231.00;2252.80;;;;;;4921828;29;20331;-77
2024/02/29 02:10:42;;;;;;;;;;;231.20;2252.80;;;;;;4921153;29;20383;-76
2024/02/29 02:13:07;;;;;;;;;;;231.30;2252.80;;;;;;4921170;29;19957;-77
2024/02/29 02:15:33;;;;;;;;;;;231.30;2252.80;;;;;;4938420;29;19922;-76
2024/02/29 02:17:59;;;;;;;;;;;231.30;2252.80;;;;;;4938414;29;20046;-76
2024/02/29 02:20:24;;;;;;;;;;;231.20;2252.80;;;;;;4938075;29;20382;-76
2024/02/29 02:22:50;;;;;;;;;;;231.10;2252.80;;;;;;4920813;29;19934;-76
2024/02/29 02:25:16;;;;;;;;;;;231.10;2252.80;;;;;;4922565;29;19911;-76
2024/02/29 02:27:42;;;;;;;;;;;231.20;2252.80;;;;;;4948331;29;19911;-76
2024/02/29 02:30:08;;;;;;;;;;;231.00;2252.80;;;;;;4937958;29;20062;-76
2024/02/29 02:32:34;;;;;;;;;;;231.00;2252.80;;;;;;4920788;29;20264;-75
2024/02/29 02:35:00;;;;;;;;;;;230.80;2252.80;;;;;;4920683;29;19911;-75
2024/02/29 02:37:25;;;;;;;;;;;230.70;2252.80;;;;;;4920844;29;19918;-76
2024/02/29 02:39:51;;;;;;;;;;;230.70;2252.80;;;;;;4920521;29;19917;-76
2024/02/29 02:42:17;;;;;;;;;;;230.60;2252.80;;;;;;4919241;29;20407;-77
2024/02/29 02:44:42;;;;;;;;;;;230.50;2252.80;;;;;;4920823;29;20360;-77
2024/02/29 02:47:08;;;;;;;;;;;230.60;2252.80;;;;;;4937938;29;19911;-77
2024/02/29 02:49:33;;;;;;;;;;;230.50;2252.80;;;;;;4920905;29;19911;-77
2024/02/29 02:51:59;;;;;;;;;;;230.50;2252.80;;;;;;4937537;29;19914;-76
2024/02/29 02:54:25;;;;;;;;;;;230.50;2252.80;;;;;;4920848;29;19915;-77
2024/02/29 02:56:50;;;;;;;;;;;230.40;2252.80;;;;;;4920599;29;19918;-76
2024/02/29 02:59:16;;;;;;;;;;;230.50;2252.80;;;;;;4937323;29;19911;-77
2024/02/29 03:01:42;;;;;;;;;;;230.60;2252.80;;;;;;4950268;29;19938;-76
2024/02/29 03:04:07;;;;;;;;;;;230.70;2252.80;;;;;;4920161;29;19923;-77
2024/02/29 03:06:33;;;;;;;;;;;230.80;2252.80;;;;;;4938939;29;19946;-76
2024/02/29 03:08:59;;;;;;;;;;;230.90;2252.80;;;;;;4931227;29;19911;-76
2024/02/29 03:11:24;;;;;;;;;;;230.90;2252.80;;;;;;4920205;29;20272;-76
2024/02/29 03:13:50;;;;;;;;;;;230.90;2252.80;;;;;;4920491;29;19949;-76
2024/02/29 03:16:22;;;;;;;;;;;230.90;2252.80;;;;;;4919982;29;19911;-76
2024/02/29 03:18:48;;;;;;;;;;;230.90;2252.80;;;;;;4937191;29;19918;-76
2024/02/29 03:21:14;;;;;;;;;;;230.90;2252.80;;;;;;4919860;29;19930;-76
2024/02/29 03:23:40;;;;;;;;;;;231.00;2252.80;;;;;;4937125;29;20021;-76
2024/02/29 03:26:05;;;;;;;;;;;231.10;2252.80;;;;;;4919735;29;20423;-76
2024/02/29 03:28:31;;;;;;;;;;;231.20;2252.80;;;;;;4937024;29;19910;-77
2024/02/29 03:30:58;;;;;;;;;;;231.20;2252.80;;;;;;4937005;29;19915;-77
2024/02/29 03:33:23;;;;;;;;;;;231.20;2252.80;;;;;;4937167;29;19965;-80
2024/02/29 03:35:49;;;;;;;;;;;231.20;2252.80;;;;;;4919402;29;19910;-76
2024/02/29 03:38:18;;;;;;;;;;;231.20;2252.80;;;;;;4937152;29;20413;-77
2024/02/29 03:40:44;;;;;;;;;;;231.20;2252.80;;;;;;4936606;29;20359;-75
2024/02/29 03:43:10;;;;;;;;;;;231.20;2252.80;;;;;;4919574;29;19993;-82
2024/02/29 03:45:35;;;;;;;;;;;231.20;2252.80;;;;;;4936570;29;19969;-76
2024/02/29 03:48:01;;;;;;;;;;;231.20;2252.80;;;;;;4928316;29;19910;-76
2024/02/29 03:50:27;;;;;;;;;;;231.20;2252.80;;;;;;4923231;29;19934;-76
2024/02/29 03:52:52;;;;;;;;;;;231.20;2252.80;;;;;;4936199;29;19915;-76
2024/02/29 03:55:18;;;;;;;;;;;231.30;2252.80;;;;;;4919122;29;19911;-76
2024/02/29 03:57:44;;;;;;;;;;;256.00;2252.80;;;;;;4936752;29;19911;-76
2024/02/29 04:00:11;;;;;;;;;;;231.30;2252.80;;;;;;4931704;29;19915;-76
2024/02/29 04:02:37;;;;;;;;;;;231.30;2252.80;;;;;;4919561;29;19923;-81
2024/02/29 04:05:08;;;;;;;;;;;231.30;2252.80;;;;;;4936525;29;20030;-77
2024/02/29 04:07:42;;;;;;;;;;;256.10;2252.80;;;;;;4936515;29;19914;-76
2024/02/29 04:10:08;;;;;;;;;;;256.00;2252.80;;;;;;4936524;29;19918;-82
2024/02/29 04:12:34;;;;;;;;;;;231.30;2252.80;;;;;;4936476;29;19911;-76
2024/02/29 04:15:02;;;;;;;;;;;231.30;2252.80;;;;;;4919405;29;19920;-77
2024/02/29 04:17:29;;;;;;;;;;;231.30;2252.80;;;;;;4936849;29;19915;-76
2024/02/29 04:19:55;;;;;;;;;;;256.50;2252.80;;;;;;4948839;29;19957;-76
2024/02/29 04:22:23;;;;;;;;;;;231.20;2252.80;;;;;;4919281;29;19958;-77
2024/02/29 04:24:48;;;;;;;;;;;231.30;2252.80;;;;;;4919289;29;19921;-77
2024/02/29 04:27:14;;;;;;;;;;;256.10;2252.80;;;;;;4918269;29;19915;-76
2024/02/29 04:29:40;;;;;;;;;;;256.10;2252.80;;;;;;4940633;29;19918;-76
2024/02/29 04:32:07;;;;;;;;;;;256.10;2252.80;;;;;;4944503;29;19959;-78
2024/02/29 04:34:33;;;;;;;;;;;256.10;2252.80;;;;;;4919071;29;19953;-76
2024/02/29 04:36:58;;;;;;;;;;;256.20;2252.80;;;;;;4919320;29;20366;-77
2024/02/29 04:39:24;;;;;;;;;;;256.10;2252.80;;;;;;4918775;29;19911;-76
2024/02/29 04:41:50;;;;;;;;;;;256.00;2252.80;;;;;;4919418;29;19910;-84
2024/02/29 04:44:16;;;;;;;;;;;231.30;2252.80;;;;;;4918741;29;19926;-80
2024/02/29 04:46:41;;;;;;;;;;;231.30;2252.80;;;;;;4919291;29;19918;-76
2024/02/29 04:49:07;;;;;;;;;;;231.30;2252.80;;;;;;4919108;29;20346;-77
2024/02/29 04:51:33;;;;;;;;;;;231.20;2252.80;;;;;;4919011;29;19915;-76
2024/02/29 04:53:59;;;;;;;;;;;231.30;2252.80;;;;;;4936260;29;19921;-77
2024/02/29 04:56:25;;;;;;;;;;;231.30;2252.80;;;;;;4919315;29;19911;-76
2024/02/29 04:58:50;;;;;;;;;;;231.30;2252.80;;;;;;4918669;29;19914;-76
2024/02/29 05:01:16;;;;;;;;;;;231.30;2252.80;;;;;;4930031;29;20013;-76
2024/02/29 05:03:42;;;;;;;;;;;231.20;2252.80;;;;;;4939996;29;20005;-76
2024/02/29 05:06:13;;;;;;;;;;;231.20;2252.80;;;;;;4922543;29;20006;-76
2024/02/29 05:08:40;;;;;;;;;;;231.10;2252.80;;;;;;4922531;29;19911;-76
2024/02/29 05:11:09;;;;;;;;;;;231.20;2252.80;;;;;;4939429;29;20324;-76
2024/02/29 05:13:34;;;;;;;;;;;231.20;2252.80;;;;;;4938932;29;19911;-76
2024/02/29 05:16:07;;;;;;;;;;;231.10;2252.80;;;;;;4927664;29;20010;-76
2024/02/29 05:18:33;;;;;;;;;;;231.10;2252.80;;;;;;4928892;29;20276;-75
2024/02/29 05:20:59;;;;;;;;;;;230.90;2252.80;;;;;;4907854;29;19916;-76
2024/02/29 05:23:24;;;;;;;;;;;231.00;2252.80;;;;;;4910249;29;19923;-76
2024/02/29 05:25:50;;;;;;;;;;;231.10;2252.80;;;;;;4915635;29;20413;-76
2024/02/29 05:28:16;;;;;;;;;;;231.20;2252.80;;;;;;4932738;29;19911;-76
2024/02/29 05:30:42;;;;;;;;;;;231.20;2252.80;;;;;;4906591;29;19955;-76
2024/02/29 05:33:08;;;;;;;;;;;231.20;2252.80;;;;;;4914425;29;19946;-76
2024/02/29 05:35:34;;;;;;;;;;;231.20;2252.80;;;;;;4927229;29;20404;-76
2024/02/29 05:38:00;;;;;;;;;;;231.20;2252.80;;;;;;4909533;29;19912;-76
2024/02/29 05:40:28;;;;;;;;;;;231.20;2252.80;;;;;;4930631;29;19911;-76
2024/02/29 05:42:54;;;;;;;;;;;231.10;2252.80;;;;;;4911289;29;19919;-76
2024/02/29 05:45:19;;;;;;;;;;;231.20;2252.80;;;;;;4914224;29;20260;-75
2024/02/29 05:47:45;;;;;;;;;;;231.10;2252.80;;;;;;4913861;29;19918;-76
2024/02/29 05:50:11;;;;;;;;;;;231.10;2252.80;;;;;;4923651;29;19911;-82
2024/02/29 05:52:36;;;;;;;;;;;231.00;2252.80;;;;;;4919612;29;19919;-75
2024/02/29 05:55:03;;;;;;;;;;;231.20;2252.80;;;;;;4931716;29;19973;-74
2024/02/29 05:57:31;;;;;;;;;;;256.00;2252.80;;;;;;4913030;29;19915;-75
2024/02/29 06:00:00;;;;;;;;;;;256.20;2252.80;;;;;;4932356;29;19915;-76
2024/02/29 06:02:28;;;;;;;;;;;256.20;2252.80;;;;;;4934182;29;19958;-81
2024/02/29 06:04:53;;;;;;;;;;;256.20;2252.80;;;;;;4914745;29;19998;-76
2024/02/29 06:07:19;;;;;;;;;;;256.20;2252.80;;;;;;4913354;29;20435;-75
2024/02/29 06:09:45;;;;;;;;;;;256.10;2252.80;;;;;;4910541;29;19915;-76
2024/02/29 06:12:11;;;;;;;;;;;256.20;2252.80;;;;;;4913032;29;20287;-81
2024/02/29 06:14:36;;;;;;;;;;;256.10;2252.80;;;;;;4915467;29;19919;-77
2024/02/29 06:17:02;;;;;;;;;;;256.10;2252.80;;;;;;4913645;29;20454;-82
2024/02/29 06:19:27;;;;;;;;;;;256.00;2252.80;;;;;;4924137;29;19914;-76
2024/02/29 06:21:53;;;;;;;;;;;256.00;2252.80;;;;;;4926556;29;19927;-76
2024/02/29 06:24:19;;;;;;;;;;;256.10;2252.80;;;;;;4911353;29;19923;-79
2024/02/29 06:26:46;;;;;;;;;;;256.10;2252.80;;;;;;4931767;29;20295;-76
2024/02/29 06:29:11;;;;;;;;;;;256.10;2252.80;;;;;;4932437;29;19911;-76
2024/02/29 06:31:37;;;;;;;;;;;256.10;2252.80;;;;;;4914811;29;19922;-74
2024/02/29 06:34:03;;;;;;;;;;;256.20;2252.80;;;;;;4908422;29;20017;-76
2024/02/29 06:36:28;;;;;;;;;;;256.20;2252.80;;;;;;4914786;29;19923;-74
2024/02/29 06:38:54;;;;;;;;;;;256.10;2252.80;;;;;;4925348;29;20333;-75
2024/02/29 06:41:19;;;;;;;;;;;256.30;2252.80;;;;;;4932637;29;19911;-76
2024/02/29 06:43:46;;;;;;;;;;;256.30;2252.80;;;;;;4907523;29;20327;-75
2024/02/29 06:46:11;;;;;;;;;;;256.30;2252.80;;;;;;4933708;29;19945;-79
2024/02/29 06:48:37;;;;;;;;;;;256.40;2252.80;;;;;;4914417;29;19966;-78
2024/02/29 06:51:03;;;;;;;;;;;256.50;2252.80;;;;;;4913212;29;19954;-78
2024/02/29 06:53:30;;;;;;;;;;;256.60;2252.80;;;;;;4929836;29;19923;-76
2024/02/29 06:55:55;;;;;;;;;;;256.70;2252.80;;;;;;4918618;29;19935;-76
2024/02/29 06:58:21;;;;;;;;;;;256.70;2252.80;;;;;;4927412;29;19911;-75
2024/02/29 07:00:47;;;;;;;;;;;256.70;2252.80;;;;;;4928809;29;19911;-78
2024/02/29 07:03:13;;;;;;;;;;;256.80;2252.80;;;;;;4931985;29;19918;-79
2024/02/29 07:05:39;;;;;;;;;;;256.80;2252.80;;;;;;4911744;29;19911;-79
2024/02/29 07:08:05;;;;;;;;;;;256.80;2252.80;;;;;;4914486;29;19918;-83
2024/02/29 07:10:31;;;;;;;;;;;256.90;2252.80;;;;;;4930918;29;19918;-77
2024/02/29 07:12:57;;;;;;;;;;;281.60;2278.40;;;;;;4904588;29;20367;-78
2024/02/29 07:15:23;;;;;;;;;;;281.60;2278.40;;;;;;4909604;29;19918;-78
2024/02/29 07:17:49;;;;;;;;;;;281.70;2278.40;;;;;;4905338;29;19911;-76
2024/02/29 07:20:14;;;;;;;;;;;281.70;2278.40;;;;;;4918587;29;19923;-79
2024/02/29 07:22:41;;;;;;;;;;;281.70;2278.40;;;;;;4904531;29;20003;-81
2024/02/29 07:25:08;;;;;;;;;;;281.80;2278.40;;;;;;4916595;29;19911;-75
2024/02/29 07:27:37;;;;;;;;;;;281.90;2278.40;;;;;;4922494;29;19911;-75
2024/02/29 07:30:03;;;;;;;;;;;282.00;2278.40;;;;;;4901394;29;19983;-76
2024/02/29 07:32:29;;;;;;;;;;;282.10;2278.40;;;;;;4893370;29;19962;-76
2024/02/29 07:34:54;;;;;;;;;;;282.00;2278.40;;;;;;4887293;29;19950;-77
2024/02/29 07:37:20;;;;;;;;;;;282.20;2278.40;;;;;;4903701;29;19971;-75
2024/02/29 07:39:45;;;;;;;;;;;282.30;2278.40;;;;;;4882762;29;19912;-81
2024/02/29 07:42:11;;;;;;;;;;;282.30;2278.40;;;;;;4911965;29;19911;-75
2024/02/29 07:44:37;;;;;;;;;;;282.20;2278.40;;;;;;4901352;29;19947;-77
2024/02/29 07:47:02;;;;;;;;;;;282.30;2278.40;;;;;;4905159;29;19912;-79
2024/02/29 07:49:28;;;;;;;;;;;282.20;2278.40;;;;;;4899066;29;20281;-76
2024/02/29 07:51:54;;;;;;;;;;;282.30;2278.40;;;;;;4892602;29;20320;-78
2024/02/29 07:54:20;;;;;;;;;;;282.30;2278.40;;;;;;4895363;29;19926;-78
2024/02/29 07:56:45;;;;;;;;;;;282.30;2278.40;;;;;;4887027;29;19912;-79
2024/02/29 07:59:12;;;;;;;;;;;282.40;2278.40;;;;;;4899279;29;19912;-78
2024/02/29 08:01:38;;;;;;;;;;;282.50;2278.40;;;;;;4906591;29;20364;-80
2024/02/29 08:04:04;;;;;;;;;;;307.20;2304.00;;;;;;4888935;29;20318;-80
2024/02/29 08:06:30;;;;;;;;;;;307.30;2304.00;;;;;;4904545;29;20010;-80
2024/02/29 08:08:55;;;;;;;;;;;307.30;2304.00;;;;;;4891570;29;19940;-75
2024/02/29 08:11:22;;;;;;;;;;;307.30;2304.00;;;;;;4887330;29;19911;-76
2024/02/29 08:13:48;;;;;;;;;;;307.30;2304.00;;;;;;4898715;29;20371;-78
2024/02/29 08:16:13;;;;;;;;;;;307.40;2304.00;;;;;;4885399;29;19912;-78
2024/02/29 08:18:39;;;;;;;;;;;307.40;2304.00;;;;;;4891911;29;20012;-78
2024/02/29 08:21:04;;;;;;;;;;;307.40;2304.00;;;;;;4891640;29;19967;-77
2024/02/29 08:23:30;;;;;;;;;;;307.50;2304.00;;;;;;4925695;29;19938;-76
2024/02/29 08:25:56;;;;;;;;;;;307.60;2304.00;;;;;;4905673;29;19937;-77
2024/02/29 08:28:22;;;;;;;;;;;307.60;2304.00;;;;;;4918848;29;19911;-76
2024/02/29 08:30:47;;;;;;;;;;;307.70;2304.00;;;;;;4918314;29;19938;-75
2024/02/29 08:33:13;;;;;;;;;;;307.80;2304.00;;;;;;4909005;29;19915;-76
2024/02/29 08:35:39;;;;;;;;;;;307.70;2304.00;;;;;;4930075;29;19921;-75
2024/02/29 08:38:04;;;;;;;;;;;307.70;2304.00;;;;;;4914127;29;20291;-76
2024/02/29 08:40:30;;;;;;;;;;;307.70;2304.00;;;;;;4928779;29;19915;-78
2024/02/29 08:42:56;;;;;;;;;;;307.70;2304.00;;;;;;4919750;29;20376;-76
2024/02/29 08:45:22;;;;;;;;;;;307.90;2304.00;;;;;;4930898;29;19911;-75
2024/02/29 08:47:48;;;;;;;;;;;307.90;2304.00;;;;;;4908553;29;19915;-76
2024/02/29 08:50:14;;;;;;;;;;;308.00;2304.00;;;;;;4926042;29;19911;-86
2024/02/29 08:52:41;;;;;;;;;;;308.00;2304.00;;;;;;4913761;29;20846;-80
2024/02/29 08:55:08;;;;;;;;;;;308.10;2304.00;;;;;;4925854;29;20316;-76
2024/02/29 08:57:33;;;;;;;;;;;308.10;2304.00;;;;;;4915978;29;19918;-76
2024/02/29 08:59:59;;;;;;;;;;;308.10;2304.00;;;;;;4928722;29;19915;-79
2024/02/29 09:02:25;;;;;;;;;;;308.10;2304.00;;;;;;4930645;29;19914;-78
2024/02/29 09:04:51;;;;;;;;;;;332.90;2329.60;;;;;;4929410;29;19925;-78
2024/02/29 09:07:16;;;;;;;;;;;332.80;2329.60;;;;;;4925773;29;20002;-79
2024/02/29 09:09:42;;;;;;;;;;;332.90;2329.60;;;;;;4911749;29;19911;-75
2024/02/29 09:12:09;;;;;;;;;;;332.90;2329.60;;;;;;4905553;29;20355;-80
2024/02/29 09:14:36;;;;;;;;;;;332.90;2329.60;;;;;;4931976;29;19959;-79
2024/02/29 09:17:02;;;;;;;;;;;332.90;2329.60;;;;;;4906046;29;19912;-78
2024/02/29 09:19:27;;;;;;;;;;;332.90;2329.60;;;;;;4923549;29;19970;-78
2024/02/29 09:21:53;;;;;;;;;;;333.00;2329.60;;;;;;4909115;29;20234;-78
2024/02/29 09:24:19;;;;;;;;;;;333.00;2329.60;;;;;;4922807;29;20010;-77
2024/02/29 09:26:44;;;;;;;;;;;333.00;2329.60;;;;;;4935483;29;19962;-81
2024/02/29 09:29:10;;;;;;;;;;;333.10;2329.60;;;;;;4921081;29;19911;-77
2024/02/29 09:31:36;;;;;;;;;;;333.20;2329.60;;;;;;4927379;29;19915;-80
2024/02/29 09:34:01;;;;;;;;;;;333.30;2329.60;;;;;;4929030;29;19911;-78
2024/02/29 09:36:29;;;;;;;;;;;333.30;2329.60;;;;;;4925209;29;19919;-79
2024/02/29 09:38:55;;;;;;;;;;;333.40;2329.60;;;;;;4930206;29;19917;-88
2024/02/29 09:41:21;;;;;;;;;;;333.40;2329.60;;;;;;4912184;29;19911;-76
2024/02/29 09:43:46;;;;;;;;;;;333.50;2329.60;;;;;;4914101;29;22006;-81
2024/02/29 09:46:12;;;;;;;;;;;333.40;2329.60;;;;;;4911057;29;20272;-79
2024/02/29 09:48:41;;;;;;;;;;;333.50;2329.60;;;;;;4907149;29;19919;-80
2024/02/29 09:51:10;;;;;;;;;;;333.60;2329.60;;;;;;4905922;29;19954;-79
2024/02/29 09:53:36;;;;;;;;;;;333.60;2329.60;;;;;;4918869;29;20378;-80
2024/02/29 09:56:02;;;;;;;;;;;333.70;2329.60;;;;;;4916127;29;19915;-81
2024/02/29 09:58:27;;;;;;;;;;;333.70;2329.60;;;;;;4914272;29;20398;-83
2024/02/29 10:00:53;;;;;;;;;;;358.50;2329.60;;;;;;4916967;29;20348;-80
2024/02/29 10:03:19;;;;;;;;;;;358.50;2329.60;;;;;;4917263;29;19919;-77
2024/02/29 10:05:45;;;;;;;;;;;358.50;2329.60;;;;;;4918899;29;19915;-78
2024/02/29 10:08:10;;;;;;;;;;;358.70;2329.60;;;;;;4913702;29;19911;-78
2024/02/29 10:10:37;;;;;;;;;;;358.80;2329.60;;;;;;4908946;29;19986;-77
2024/02/29 10:13:02;;;;;;;;;;;358.90;2329.60;;;;;;4916553;29;19973;-78
2024/02/29 10:15:28;;;;;;;;;;;359.00;2329.60;;;;;;4908885;29;19946;-81
2024/02/29 10:17:57;;;;;;;;;;;359.20;2329.60;;;;;;4912090;29;20471;-80
2024/02/29 10:20:24;;;;;;;;;;;359.20;2329.60;;;;;;4911655;29;19923;-78
2024/02/29 10:22:51;;;;;;;;;;;359.30;2329.60;;;;;;4914804;29;19927;-79
2024/02/29 10:25:17;;;;;;;;;;;384.00;2329.60;;;;;;4928141;29;20269;-82
2024/02/29 10:27:43;;;;;;;;;;;384.10;2329.60;;;;;;4918723;29;19987;-82
2024/02/29 10:30:10;;;;;;;;;;;384.20;2329.60;;;;;;4935386;29;19955;-77
2024/02/29 10:32:36;;;;;;;;;;;384.20;2329.60;;;;;;4910845;29;19915;-80
2024/02/29 10:35:20;;;;;;;;;;;384.30;2329.60;;;;;;4915014;29;19934;-79
2024/02/29 10:37:46;;;;;;;;;;;384.30;2329.60;;;;;;4916806;29;20295;-78
2024/02/29 10:40:12;;;;;;;;;;;384.40;2329.60;;;;;;4912167;29;19911;-77
2024/02/29 10:42:38;;;;;;;;;;;384.60;2329.60;;;;;;4915232;29;19937;-79
2024/02/29 10:45:07;;;;;;;;;;;384.50;2329.60;;;;;;4917071;29;19911;-79
2024/02/29 10:47:34;;;;;;;;;;;384.70;2329.60;;;;;;4926643;29;20002;-77
2024/02/29 10:50:04;;;;;;;;;;;384.90;2329.60;;;;;;4924360;29;19911;-77
2024/02/29 10:52:33;;;;;;;;;;;409.60;2355.20;;;;;;4933264;29;19915;-81
2024/02/29 10:55:09;;;;;;;;;;;409.70;2355.20;;;;;;4925455;29;19987;-80
2024/02/29 10:57:40;;;;;;;;;;;409.90;2355.20;;;;;;4913781;29;19911;-78
2024/02/29 11:00:07;;;;;;;;;;;409.90;2355.20;;;;;;4910662;29;19946;-78
2024/02/29 11:02:32;;;;;;;;;;;409.90;2355.20;;;;;;4907750;29;19954;-77
2024/02/29 11:04:58;;;;;;;;;;;409.90;2355.20;;;;;;4912728;29;19946;-77
2024/02/29 11:07:26;;;;;;;;;;;409.90;2355.20;;;;;;4927260;29;20191;-79
2024/02/29 11:09:53;;;;;;;;;;;410.00;2355.20;;;;;;4906904;29;19946;-80
2024/02/29 11:12:21;;;;;;;;;;;409.90;2355.20;;;;;;4911194;29;19918;-79
2024/02/29 11:14:52;;;;;;;;;;;409.90;2355.20;;;;;;4914790;29;19911;-79
2024/02/29 11:17:18;;;;;;;;;;;409.90;2355.20;;;;;;4905283;29;19911;-79
2024/02/29 11:19:47;;;;;;;;;;;409.90;2355.20;;;;;;4909242;29;20352;-80
2024/02/29 11:22:13;;;;;;;;;;;409.90;2329.60;;;;;;4911683;29;19922;-76
2024/02/29 11:24:42;;;;;;;;;;;409.90;2329.60;;;;;;4922094;29;19931;-79
2024/02/29 11:27:09;;;;;;;;;;;409.90;2355.20;;;;;;4903743;29;19959;-79
2024/02/29 11:29:35;;;;;;;;;;;410.00;2355.20;;;;;;4904971;29;19968;-82
2024/02/29 11:32:02;;;;;;;;;;;410.00;2355.20;;;;;;4907174;29;19911;-82
2024/02/29 11:34:28;;;;;;;;;;;410.10;2304.00;;;;;;4925214;29;19922;-77
2024/02/29 11:36:54;;;;;;;;;;;410.10;2201.60;;;;;;4920857;29;20271;-79
2024/02/29 11:39:23;;;;;;;;;;;410.10;2150.40;;;;;;4912290;29;20009;-78
2024/02/29 11:41:49;;;;;;;;;;;410.10;2124.80;;;;;;4926350;29;19915;-80
2024/02/29 11:44:15;;;;;;;;;;;410.10;2150.40;;;;;;4930600;29;19923;-79
2024/02/29 11:46:48;;;;;;;;;;;410.10;2252.80;;;;;;4912831;29;19918;-79
2024/02/29 11:49:14;;;;;;;;;;;410.10;2176.00;;;;;;4910177;29;19912;-83
2024/02/29 11:51:40;;;;;;;;;;;410.10;2227.20;;;;;;4905573;29;19922;-81
2024/02/29 11:54:06;;;;;;;;;;;410.00;2150.40;;;;;;4914926;29;19915;-80
2024/02/29 11:56:31;;;;;;;;;;;410.00;2201.60;;;;;;4920089;29;20009;-81
2024/02/29 11:59:02;;;;;;;;;;;410.00;2201.60;;;;;;4925580;29;20383;-79
2024/02/29 12:01:28;;;;;;;;;;;409.90;2227.20;;;;;;4909758;29;20022;-81
2024/02/29 12:03:53;;;;;;;;;;;409.90;2252.80;;;;;;4916127;29;19942;-83
2024/02/29 12:06:20;;;;;;;;;;;409.90;2252.80;;;;;;4907437;29;19921;-79
2024/02/29 12:08:45;;;;;;;;;;;409.90;2227.20;;;;;;4908680;29;19911;-80
2024/02/29 12:11:11;;;;;;;;;;;409.90;2355.20;;;;;;4913539;29;19915;-78
2024/02/29 12:13:38;;;;;;;;;;;409.90;2355.20;;;;;;4910723;29;19974;-77
2024/02/29 12:16:04;;;;;;;;;;;409.60;2355.20;;;;;;4907541;29;20014;-77
2024/02/29 12:18:30;;;;;;;;;;;409.90;2355.20;;;;;;4913442;29;19914;-78
2024/02/29 12:20:56;;;;;;;;;;;409.90;2304.00;;;;;;4920747;29;19915;-83
2024/02/29 12:23:23;;;;;;;;;;;409.90;2355.20;;;;;;4912578;29;19926;-77
2024/02/29 12:25:49;;;;;;;;;;;409.90;2355.20;;;;;;4931288;29;19985;-74
2024/02/29 12:28:15;;;;;;;;;;;409.90;2355.20;;;;;;4933689;29;20364;-74
2024/02/29 12:30:40;;;;;;;;;;;409.90;2355.20;;;;;;4919787;29;19911;-73
2024/02/29 12:33:06;;;;;;;;;;;409.80;2355.20;;;;;;4929726;29;19911;-74
2024/02/29 12:35:33;;;;;;;;;;;409.90;2355.20;;;;;;4922003;29;20364;-74
2024/02/29 12:37:59;;;;;;;;;;;409.90;2355.20;;;;;;4930195;29;19922;-71
2024/02/29 12:40:25;;;;;;;;;;;409.90;2355.20;;;;;;4924820;29;20229;-73
2024/02/29 12:42:51;;;;;;;;;;;409.90;2355.20;;;;;;4935385;29;19911;-73
2024/02/29 12:45:16;;;;;;;;;;;409.90;2355.20;;;;;;4938636;29;19922;-73
2024/02/29 12:47:42;;;;;;;;;;;409.90;2329.60;;;;;;4930951;29;20386;-72
2024/02/29 12:50:08;;;;;;;;;;;410.00;2355.20;;;;;;4926815;29;19919;-76
2024/02/29 12:52:36;;;;;;;;;;;410.00;2355.20;;;;;;4906459;29;19962;-75
2024/02/29 12:55:03;;;;;;;;;;;410.00;2355.20;;;;;;4924695;29;19922;-81
2024/02/29 12:57:28;;;;;;;;;;;410.10;2355.20;;;;;;4925937;29;20282;-77
2024/02/29 12:59:55;;;;;;;;;;;410.10;2329.60;;;;;;4918100;29;20005;-78
2024/02/29 13:02:20;;;;;;;;;;;410.10;2355.20;;;;;;4907455;29;19911;-76
2024/02/29 13:04:46;;;;;;;;;;;410.10;2304.00;;;;;;4917244;29;19930;-75
2024/02/29 13:07:12;;;;;;;;;;;410.10;2252.80;;;;;;4911496;29;19912;-76
2024/02/29 13:09:38;;;;;;;;;;;410.00;2304.00;;;;;;4910862;29;19914;-77
2024/02/29 13:12:04;;;;;;;;;;;410.10;2304.00;;;;;;4913314;29;20001;-76
2024/02/29 13:14:29;;;;;;;;;;;410.20;2355.20;;;;;;4917739;29;19957;-77
2024/02/29 13:16:55;;;;;;;;;;;410.20;2355.20;;;;;;4909255;29;19911;-79
2024/02/29 13:19:20;;;;;;;;;;;410.20;2329.60;;;;;;4908568;29;19911;-79
2024/02/29 13:21:46;;;;;;;;;;;410.20;2355.20;;;;;;4907288;29;19923;-85
2024/02/29 13:24:12;;;;;;;;;;;410.30;2329.60;;;;;;4911137;29;19927;-80
2024/02/29 13:26:37;;;;;;;;;;;410.50;2278.40;;;;;;4913396;29;19918;-80
2024/02/29 13:29:03;;;;;;;;;;;435.40;2227.20;;;;;;4917771;29;19911;-79
2024/02/29 13:31:28;;;;;;;;;;;435.60;2150.40;;;;;;4931925;29;19920;-79
2024/02/29 13:33:54;;;;;;;;;;;435.80;2201.60;;;;;;4908873;29;20367;-75
2024/02/29 13:36:20;;;;;;;;;;;435.80;2176.00;;;;;;4920738;29;19918;-74